createdAt,value
2023-06-30T00:00:23.462Z,94.12
2023-06-30T00:01:23.464Z,94.12
2023-06-30T00:02:23.498Z,93.82
2023-06-30T00:03:23.486Z,94.63
2023-06-30T00:04:23.507Z,94.63
2023-06-30T00:05:23.355Z,94.93
2023-06-30T00:06:23.356Z,94.63
2023-06-30T00:07:23.354Z,94.83
2023-06-30T00:08:23.392Z,94.73
2023-06-30T00:09:23.285Z,94.63
2023-06-30T00:10:23.288Z,94.23
2023-06-30T00:11:23.231Z,94.32
2023-06-30T00:12:23.215Z,94.73
2023-06-30T00:13:23.182Z,93.72
2023-06-30T00:14:23.215Z,94.23
2023-06-30T00:15:23.143Z,93.92
2023-06-30T00:16:23.318Z,93.92
2023-06-30T00:17:23.661Z,94.73
2023-06-30T00:18:23.083Z,94.12
2023-06-30T00:19:23.149Z,94.12
2023-06-30T00:20:23.045Z,93.87
2023-06-30T00:21:23.066Z,94.17
2023-06-30T00:22:23.033Z,93.56
2023-06-30T00:23:22.993Z,94.27
2023-06-30T00:24:22.970Z,94.27
2023-06-30T00:25:22.989Z,94.07
2023-06-30T00:26:22.924Z,94.17
2023-06-30T00:27:23.015Z,93.87
2023-06-30T00:28:22.880Z,94.62
2023-06-30T00:29:22.864Z,94.47
2023-06-30T00:30:22.939Z,94.78
2023-06-30T00:31:22.845Z,94.47
2023-06-30T00:32:22.862Z,94.37
2023-06-30T00:33:22.790Z,94.27
2023-06-30T00:34:22.859Z,94.47
2023-06-30T00:35:22.731Z,94.27
2023-06-30T00:36:22.770Z,94.67
2023-06-30T00:37:22.689Z,94.57
2023-06-30T00:38:22.797Z,94.78
2023-06-30T00:39:22.656Z,94.47
2023-06-30T00:40:22.640Z,94.78
2023-06-30T00:41:22.620Z,94.47
2023-06-30T00:42:22.610Z,94.72
2023-06-30T00:43:22.586Z,94.98
2023-06-30T00:44:22.614Z,94.87
2023-06-30T00:45:22.523Z,94.17
2023-06-30T00:46:22.506Z,94.17
2023-06-30T00:47:22.534Z,94.47
2023-06-30T00:48:22.541Z,94.78
2023-06-30T00:49:22.457Z,94.42
2023-06-30T00:50:22.460Z,94.62
2023-06-30T00:51:22.402Z,94.47
2023-06-30T00:52:22.381Z,94.37
2023-06-30T00:53:22.392Z,94.92
2023-06-30T00:54:22.347Z,94.82
2023-06-30T00:55:22.389Z,94.87
2023-06-30T00:56:22.300Z,95.48
2023-06-30T00:57:22.299Z,95.43
2023-06-30T00:58:22.254Z,96.03
2023-06-30T00:59:22.311Z,95.43
2023-06-30T01:00:22.220Z,95.28
2023-06-30T01:01:22.297Z,95.43
2023-06-30T01:02:22.208Z,95.83
2023-06-30T01:03:22.237Z,95.89
2023-06-30T01:04:22.188Z,95.43
2023-06-30T01:05:22.157Z,95.83
2023-06-30T01:06:22.092Z,95.38
2023-06-30T01:07:22.214Z,95.93
2023-06-30T01:08:22.048Z,95.38
2023-06-30T01:09:22.029Z,96.34
2023-06-30T01:10:22.092Z,95.93
2023-06-30T01:11:21.991Z,95.93
2023-06-30T01:12:22.010Z,95.83
2023-06-30T01:13:21.941Z,95.73
2023-06-30T01:14:21.944Z,95.93
2023-06-30T01:15:21.903Z,95.63
2023-06-30T01:16:21.968Z,95.63
2023-06-30T01:17:21.933Z,95.83
2023-06-30T01:18:21.948Z,96.44
2023-06-30T01:19:21.845Z,95.53
2023-06-30T01:20:21.819Z,95.53
2023-06-30T01:21:21.799Z,95.93
2023-06-30T01:22:21.773Z,95.93
2023-06-30T01:23:21.740Z,95.73
2023-06-30T01:24:21.785Z,95.93
2023-06-30T01:25:21.695Z,95.73
2023-06-30T01:26:21.739Z,96.13
2023-06-30T01:27:21.714Z,95.93
2023-06-30T01:28:21.672Z,95.73
2023-06-30T01:29:21.775Z,95.83
2023-06-30T01:30:21.607Z,95.93
2023-06-30T01:31:21.643Z,95.63
2023-06-30T01:32:21.626Z,95.93
2023-06-30T01:33:21.544Z,95.93
2023-06-30T01:34:21.521Z,95.32
2023-06-30T01:35:21.560Z,95.43
2023-06-30T01:36:21.487Z,95.73
2023-06-30T01:37:21.444Z,95.43
2023-06-30T01:38:21.493Z,95.02
2023-06-30T01:39:21.414Z,94.31
2023-06-30T01:40:21.490Z,94.42
2023-06-30T01:41:21.380Z,94.51
2023-06-30T01:42:21.406Z,94.72
2023-06-30T01:43:21.367Z,94.21
2023-06-30T01:44:21.418Z,94.42
2023-06-30T01:45:21.280Z,94.92
2023-06-30T01:46:21.396Z,94.31
2023-06-30T01:47:21.267Z,94.72
2023-06-30T01:48:21.220Z,94.82
2023-06-30T01:49:21.218Z,94.51
2023-06-30T01:50:21.271Z,94.42
2023-06-30T01:51:21.164Z,94.31
2023-06-30T01:52:21.187Z,94.51
2023-06-30T01:53:21.116Z,95.02
2023-06-30T01:54:21.105Z,94.11
2023-06-30T01:55:21.093Z,94.21
2023-06-30T01:56:21.067Z,94.11
2023-06-30T01:57:21.103Z,93.91
2023-06-30T01:58:21.007Z,94.92
2023-06-30T01:59:28.194Z,94.82
2023-06-30T02:01:25.008Z,94.62
2023-06-30T02:02:24.959Z,94.92
2023-06-30T02:04:28.912Z,94.62
2023-06-30T02:05:28.878Z,94.66
2023-06-30T02:07:32.946Z,94.31
2023-06-30T02:08:32.797Z,94.21
2023-06-30T02:10:36.776Z,94.96
2023-06-30T02:11:36.724Z,94.56
2023-06-30T02:13:41.559Z,94.86
2023-06-30T02:14:41.525Z,94.76
2023-06-30T02:16:45.582Z,95.78
2023-06-30T02:17:45.520Z,95.47
2023-06-30T02:19:49.422Z,95.57
2023-06-30T02:20:49.376Z,96.08
2023-06-30T02:22:53.372Z,96.02
2023-06-30T02:23:53.332Z,95.78
2023-06-30T02:25:46.487Z,95.98
2023-06-30T02:26:46.179Z,95.92
2023-06-30T02:28:50.156Z,96.18
2023-06-30T02:29:50.106Z,95.72
2023-06-30T02:31:54.112Z,95.72
2023-06-30T02:32:54.043Z,95.67
2023-06-30T02:34:58.071Z,95.82
2023-06-30T02:35:57.999Z,96.02
2023-06-30T02:38:01.982Z,95.87
2023-06-30T02:39:01.941Z,95.87
2023-06-30T02:41:06.764Z,95.87
2023-06-30T02:42:06.725Z,95.87
2023-06-30T02:44:10.684Z,95.47
2023-06-30T02:45:10.648Z,94.96
2023-06-30T02:47:14.634Z,95.87
2023-06-30T02:48:14.614Z,95.78
2023-06-30T02:50:19.413Z,94.56
2023-06-30T02:51:19.354Z,94.76
2023-06-30T02:53:23.342Z,94.86
2023-06-30T02:54:23.307Z,94.96
2023-06-30T02:56:27.276Z,94.26
2023-06-30T02:57:27.234Z,93.95
2023-06-30T02:59:31.219Z,94.96
2023-06-30T03:00:31.168Z,94.71
2023-06-30T03:02:35.378Z,94.76
2023-06-30T03:03:35.146Z,94.71
2023-06-30T03:05:28.013Z,94.36
2023-06-30T03:06:27.974Z,94.20
2023-06-30T03:08:31.936Z,94.00
2023-06-30T03:09:31.894Z,95.01
2023-06-30T03:11:35.892Z,95.11
2023-06-30T03:12:35.837Z,94.60
2023-06-30T03:14:40.661Z,94.20
2023-06-30T03:15:40.617Z,94.30
2023-06-30T03:17:44.711Z,95.01
2023-06-30T03:18:44.564Z,95.01
2023-06-30T03:20:48.525Z,94.20
2023-06-30T03:21:48.498Z,94.40
2023-06-30T03:23:52.475Z,93.19
2023-06-30T03:24:52.417Z,93.79
2023-06-30T03:26:56.413Z,93.70
2023-06-30T03:27:56.355Z,93.79
2023-06-30T03:30:00.345Z,94.50
2023-06-30T03:31:00.311Z,93.59
2023-06-30T03:33:04.306Z,93.29
2023-06-30T03:34:04.225Z,93.59
2023-06-30T03:35:57.113Z,93.59
2023-06-30T03:36:57.091Z,92.48
2023-06-30T03:39:01.054Z,92.24
2023-06-30T03:40:01.035Z,92.58
2023-06-30T03:42:05.841Z,92.79
2023-06-30T03:43:05.797Z,92.99
2023-06-30T03:45:09.764Z,91.87
2023-06-30T03:46:09.771Z,92.38
2023-06-30T03:48:13.710Z,91.97
2023-06-30T03:49:13.665Z,91.77
2023-06-30T03:51:17.639Z,92.88
2023-06-30T03:52:17.591Z,92.68
2023-06-30T03:54:21.577Z,93.39
2023-06-30T03:55:21.540Z,92.28
2023-06-30T03:57:25.524Z,92.63
2023-06-30T03:58:25.460Z,93.33
2023-06-30T04:00:29.449Z,93.59
2023-06-30T04:01:29.404Z,93.43
2023-06-30T04:03:33.466Z,92.52
2023-06-30T04:04:33.497Z,92.83
2023-06-30T04:06:37.336Z,92.83
2023-06-30T04:07:37.370Z,92.22
2023-06-30T04:09:41.243Z,92.93
2023-06-30T04:10:41.202Z,92.52
2023-06-30T04:12:45.193Z,92.63
2023-06-30T04:13:45.150Z,92.42
2023-06-30T04:15:38.072Z,92.47
2023-06-30T04:16:38.046Z,92.57
2023-06-30T04:18:41.994Z,93.27
2023-06-30T04:19:41.935Z,93.74
2023-06-30T04:21:45.913Z,92.93
2023-06-30T04:22:45.883Z,93.03
2023-06-30T04:24:49.879Z,92.02
2023-06-30T04:25:49.801Z,91.61
2023-06-30T04:27:53.782Z,91.71
2023-06-30T04:28:53.753Z,92.12
2023-06-30T04:30:57.731Z,91.51
2023-06-30T04:31:57.716Z,91.71
2023-06-30T04:34:01.667Z,91.41
2023-06-30T04:35:01.610Z,91.61
2023-06-30T04:37:06.450Z,91.11
2023-06-30T04:38:06.398Z,91.61
2023-06-30T04:40:10.396Z,91.92
2023-06-30T04:41:10.336Z,91.41
2023-06-30T04:43:14.328Z,91.31
2023-06-30T04:44:14.289Z,91.51
2023-06-30T04:46:07.280Z,92.02
2023-06-30T04:47:07.162Z,91.57
2023-06-30T04:49:11.132Z,91.37
2023-06-30T04:50:11.089Z,90.40
2023-06-30T04:52:15.071Z,91.20
2023-06-30T04:53:15.012Z,91.82
2023-06-30T04:54:15.015Z,91.31
2023-06-30T04:55:14.975Z,91.51
2023-06-30T04:56:14.983Z,90.91
2023-06-30T04:57:14.949Z,91.00
2023-06-30T04:58:14.918Z,91.20
2023-06-30T04:59:14.907Z,90.60
2023-06-30T05:00:14.892Z,90.30
2023-06-30T05:01:14.899Z,90.09
2023-06-30T05:02:14.830Z,89.99
2023-06-30T05:03:14.848Z,90.30
2023-06-30T05:04:14.798Z,89.85
2023-06-30T05:05:14.758Z,89.65
2023-06-30T05:06:14.760Z,88.98
2023-06-30T05:07:14.760Z,88.43
2023-06-30T05:08:14.712Z,87.73
2023-06-30T05:09:14.685Z,87.42
2023-06-30T05:10:14.672Z,87.32
2023-06-30T05:11:14.653Z,88.07
2023-06-30T05:12:14.624Z,87.93
2023-06-30T05:13:14.588Z,87.42
2023-06-30T05:14:14.577Z,87.02
2023-06-30T05:15:14.578Z,86.51
2023-06-30T05:16:14.579Z,86.10
2023-06-30T05:17:14.580Z,86.41
2023-06-30T05:18:14.538Z,87.32
2023-06-30T05:19:14.472Z,87.42
2023-06-30T05:20:14.448Z,87.52
2023-06-30T05:21:14.422Z,87.52
2023-06-30T05:22:14.400Z,87.42
2023-06-30T05:23:14.391Z,87.52
2023-06-30T05:24:14.363Z,86.31
2023-06-30T05:25:14.332Z,86.10
2023-06-30T05:26:14.313Z,86.61
2023-06-30T05:27:14.341Z,87.02
2023-06-30T05:28:14.286Z,86.10
2023-06-30T05:29:15.638Z,86.21
2023-06-30T05:30:14.264Z,86.00
2023-06-30T05:31:14.250Z,85.50
2023-06-30T05:32:14.292Z,86.00
2023-06-30T05:33:14.156Z,86.00
2023-06-30T05:34:14.228Z,87.22
2023-06-30T05:35:14.119Z,87.52
2023-06-30T05:36:14.198Z,85.16
2023-06-30T05:37:14.128Z,85.25
2023-06-30T05:38:14.141Z,86.10
2023-06-30T05:39:14.041Z,85.76
2023-06-30T05:40:14.021Z,85.46
2023-06-30T05:41:13.994Z,85.60
2023-06-30T05:42:13.979Z,85.30
2023-06-30T05:43:13.948Z,85.70
2023-06-30T05:44:14.094Z,87.12
2023-06-30T05:45:13.914Z,86.47
2023-06-30T05:46:13.998Z,86.07
2023-06-30T05:47:13.867Z,85.52
2023-06-30T05:48:13.857Z,85.36
2023-06-30T05:49:13.822Z,85.31
2023-06-30T05:50:13.907Z,85.16
2023-06-30T05:51:13.780Z,84.14
2023-06-30T05:52:13.809Z,84.11
2023-06-30T05:53:13.733Z,84.11
2023-06-30T05:54:13.738Z,84.31
2023-06-30T05:55:13.748Z,84.20
2023-06-30T05:56:13.669Z,84.31
2023-06-30T05:57:13.756Z,83.70
2023-06-30T05:58:13.631Z,83.76
2023-06-30T05:59:13.604Z,83.56
2023-06-30T06:00:13.594Z,83.15
2023-06-30T06:01:13.666Z,83.36
2023-06-30T06:02:13.586Z,82.24
2023-06-30T06:03:13.866Z,82.28
2023-06-30T06:04:13.623Z,82.24
2023-06-30T06:05:13.734Z,82.08
2023-06-30T06:06:13.500Z,83.26
2023-06-30T06:07:13.471Z,83.56
2023-06-30T06:08:13.535Z,83.40
2023-06-30T06:09:13.417Z,83.80
2023-06-30T06:10:13.424Z,83.05
2023-06-30T06:11:13.386Z,83.36
2023-06-30T06:12:13.444Z,83.19
2023-06-30T06:13:13.370Z,83.40
2023-06-30T06:14:13.366Z,83.09
2023-06-30T06:15:13.270Z,83.90
2023-06-30T06:16:13.326Z,84.06
2023-06-30T06:17:13.226Z,83.50
2023-06-30T06:18:13.299Z,82.85
2023-06-30T06:19:13.218Z,81.74
2023-06-30T06:20:13.190Z,80.73
2023-06-30T06:21:13.163Z,80.63
2023-06-30T06:22:13.130Z,80.22
2023-06-30T06:23:13.106Z,79.92
2023-06-30T06:24:13.116Z,79.92
2023-06-30T06:25:13.075Z,79.82
2023-06-30T06:26:13.144Z,79.88
2023-06-30T06:27:13.028Z,80.83
2023-06-30T06:28:13.106Z,80.93
2023-06-30T06:29:13.050Z,81.54
2023-06-30T06:30:12.990Z,82.14
2023-06-30T06:31:13.014Z,81.44
2023-06-30T06:32:12.914Z,80.73
2023-06-30T06:33:12.989Z,81.34
2023-06-30T06:34:12.896Z,80.99
2023-06-30T06:35:12.899Z,80.79
2023-06-30T06:36:12.839Z,81.20
2023-06-30T06:37:12.911Z,81.40
2023-06-30T06:38:12.791Z,80.45
2023-06-30T06:39:12.843Z,80.25
2023-06-30T06:40:12.757Z,79.74
2023-06-30T06:41:12.828Z,79.24
2023-06-30T06:42:12.703Z,77.62
2023-06-30T06:43:13.766Z,78.94
2023-06-30T06:44:12.677Z,78.63
2023-06-30T06:45:12.665Z,78.63
2023-06-30T06:46:12.653Z,78.43
2023-06-30T06:47:12.754Z,77.83
2023-06-30T06:48:12.586Z,77.32
2023-06-30T06:49:12.685Z,77.12
2023-06-30T06:50:12.545Z,77.02
2023-06-30T06:51:12.527Z,77.42
2023-06-30T06:52:12.504Z,77.73
2023-06-30T06:53:12.528Z,77.62
2023-06-30T06:54:12.578Z,77.73
2023-06-30T06:55:12.535Z,77.73
2023-06-30T06:56:12.427Z,77.28
2023-06-30T06:57:12.408Z,77.49
2023-06-30T06:58:12.613Z,77.22
2023-06-30T06:59:12.463Z,77.28
2023-06-30T07:00:12.336Z,76.18
2023-06-30T07:01:12.358Z,77.28
2023-06-30T07:02:12.386Z,77.19
2023-06-30T07:03:12.294Z,75.98
2023-06-30T07:04:12.368Z,75.98
2023-06-30T07:05:12.236Z,76.48
2023-06-30T07:06:12.306Z,76.95
2023-06-30T07:07:12.272Z,76.24
2023-06-30T07:08:12.207Z,77.39
2023-06-30T07:09:12.176Z,76.24
2023-06-30T07:10:12.229Z,76.95
2023-06-30T07:11:12.152Z,76.34
2023-06-30T07:12:12.285Z,75.74
2023-06-30T07:13:12.062Z,77.04
2023-06-30T07:14:12.145Z,75.54
2023-06-30T07:15:12.023Z,75.74
2023-06-30T07:16:12.125Z,75.16
2023-06-30T07:17:11.978Z,76.04
2023-06-30T07:18:12.062Z,76.28
2023-06-30T07:19:11.953Z,75.98
2023-06-30T07:20:11.934Z,76.28
2023-06-30T07:21:11.904Z,76.24
2023-06-30T07:22:11.905Z,75.84
2023-06-30T07:23:11.860Z,75.34
2023-06-30T07:24:11.926Z,75.74
2023-06-30T07:25:11.813Z,75.54
2023-06-30T07:26:11.790Z,75.60
2023-06-30T07:27:11.781Z,74.12
2023-06-30T07:28:11.875Z,74.02
2023-06-30T07:29:11.738Z,74.02
2023-06-30T07:30:11.762Z,75.43
2023-06-30T07:31:11.753Z,74.02
2023-06-30T07:32:11.682Z,74.22
2023-06-30T07:33:11.731Z,74.79
2023-06-30T07:34:11.640Z,74.08
2023-06-30T07:35:11.683Z,74.19
2023-06-30T07:36:11.584Z,73.48
2023-06-30T07:37:11.625Z,73.58
2023-06-30T07:38:11.544Z,73.58
2023-06-30T07:39:12.662Z,71.87
2023-06-30T07:40:16.548Z,71.87
2023-06-30T07:41:12.586Z,71.67
2023-06-30T07:42:11.459Z,72.17
2023-06-30T07:43:11.459Z,71.77
2023-06-30T07:44:11.427Z,71.57
2023-06-30T07:45:11.456Z,70.66
2023-06-30T07:46:11.418Z,70.53
2023-06-30T07:47:11.475Z,69.32
2023-06-30T07:48:11.469Z,70.12
2023-06-30T07:49:11.318Z,70.22
2023-06-30T07:50:11.295Z,71.53
2023-06-30T07:51:11.390Z,72.04
2023-06-30T07:52:11.256Z,72.34
2023-06-30T07:53:11.314Z,72.34
2023-06-30T07:54:11.225Z,72.14
2023-06-30T07:55:11.209Z,70.19
2023-06-30T07:56:11.189Z,68.91
2023-06-30T07:57:11.225Z,69.79
2023-06-30T07:58:11.145Z,70.42
2023-06-30T07:59:11.252Z,70.32
2023-06-30T08:00:18.480Z,71.80
2023-06-30T08:02:15.219Z,71.10
2023-06-30T08:03:15.275Z,71.60
2023-06-30T08:05:19.327Z,69.09
2023-06-30T08:06:19.269Z,67.47
2023-06-30T08:08:23.236Z,66.36
2023-06-30T08:09:23.167Z,66.47
2023-06-30T08:11:27.247Z,67.84
2023-06-30T08:12:27.175Z,68.55
2023-06-30T08:14:31.273Z,67.64
2023-06-30T08:15:31.202Z,66.74
2023-06-30T08:17:51.335Z,67.44
2023-06-30T08:18:35.291Z,66.00
2023-06-30T08:20:39.304Z,66.33
2023-06-30T08:21:39.241Z,67.44
2023-06-30T08:23:43.283Z,67.51
2023-06-30T08:24:43.239Z,67.91
2023-06-30T08:26:47.328Z,66.27
2023-06-30T08:27:47.256Z,67.38
2023-06-30T08:29:51.362Z,66.27
2023-06-30T08:30:51.300Z,64.46
2023-06-30T08:32:55.964Z,65.03
2023-06-30T08:33:55.298Z,64.63
2023-06-30T08:35:48.313Z,65.13
2023-06-30T08:36:48.245Z,65.64
2023-06-30T08:38:52.336Z,65.41
2023-06-30T08:39:52.255Z,65.97
2023-06-30T08:41:56.348Z,64.43
2023-06-30T08:42:56.309Z,63.90
2023-06-30T08:45:00.379Z,62.27
2023-06-30T08:46:00.286Z,60.24
2023-06-30T08:48:04.428Z,61.27
2023-06-30T08:49:04.316Z,60.84
2023-06-30T08:51:08.406Z,60.41
2023-06-30T08:52:08.321Z,61.08
2023-06-30T08:54:12.448Z,61.08
2023-06-30T08:55:12.339Z,57.95
2023-06-30T08:57:16.480Z,60.25
2023-06-30T08:58:25.225Z,59.75
2023-06-30T09:00:20.516Z,56.55
2023-06-30T09:01:20.519Z,55.85
2023-06-30T09:03:24.535Z,58.37
2023-06-30T09:04:24.417Z,59.78
2023-06-30T09:06:28.485Z,57.37
2023-06-30T09:07:28.446Z,58.58
2023-06-30T09:09:32.493Z,58.68
2023-06-30T09:10:32.429Z,56.67
2023-06-30T09:12:36.526Z,58.98
2023-06-30T09:13:36.452Z,57.72
2023-06-30T09:15:29.445Z,57.37
2023-06-30T09:16:29.415Z,55.66
2023-06-30T09:18:33.508Z,53.57
2023-06-30T09:19:33.409Z,55.87
2023-06-30T09:21:37.508Z,57.34
2023-06-30T09:22:53.174Z,55.97
2023-06-30T09:24:42.020Z,55.36
2023-06-30T09:25:42.027Z,55.79
2023-06-30T09:27:46.046Z,55.69
2023-06-30T09:28:45.992Z,55.49
2023-06-30T09:30:50.071Z,54.97
2023-06-30T09:31:50.081Z,53.94
2023-06-30T09:33:54.083Z,54.02
2023-06-30T09:34:53.998Z,53.61
2023-06-30T09:36:58.095Z,55.19
2023-06-30T09:37:58.023Z,55.76
2023-06-30T09:40:02.109Z,53.19
2023-06-30T09:41:02.020Z,55.76
2023-06-30T09:43:06.126Z,54.57
2023-06-30T09:44:06.057Z,53.54
2023-06-30T09:45:59.192Z,54.83
2023-06-30T09:46:59.011Z,55.54
2023-06-30T09:49:03.097Z,52.64
2023-06-30T09:50:03.114Z,54.04
2023-06-30T09:52:07.110Z,53.39
2023-06-30T09:53:07.045Z,52.99
2023-06-30T09:55:11.110Z,53.99
2023-06-30T09:56:11.084Z,53.06
2023-06-30T09:58:15.136Z,55.04
2023-06-30T09:59:15.078Z,52.81
2023-06-30T10:01:19.190Z,52.59
2023-06-30T10:02:19.120Z,50.52
2023-06-30T10:04:23.169Z,51.65
2023-06-30T10:05:23.089Z,51.25
2023-06-30T10:07:27.226Z,54.71
2023-06-30T10:08:27.113Z,53.39
2023-06-30T10:10:31.206Z,49.68
2023-06-30T10:11:31.138Z,49.88
2023-06-30T10:13:35.209Z,50.30
2023-06-30T10:14:35.137Z,52.09
2023-06-30T10:16:39.221Z,51.25
2023-06-30T10:17:39.331Z,52.04
2023-06-30T10:19:43.247Z,48.36
2023-06-30T10:20:49.182Z,48.19
2023-06-30T10:22:47.408Z,49.40
2023-06-30T10:23:47.241Z,49.83
2023-06-30T10:24:47.275Z,51.70
2023-06-30T10:25:47.417Z,50.20
2023-06-30T10:26:47.296Z,51.57
2023-06-30T10:27:47.168Z,50.27
2023-06-30T10:28:47.249Z,48.33
2023-06-30T10:29:47.144Z,51.22
2023-06-30T10:30:47.113Z,49.51
2023-06-30T10:31:47.136Z,50.40
2023-06-30T10:32:47.250Z,51.00
2023-06-30T10:33:47.136Z,51.67
2023-06-30T10:34:47.148Z,49.55
2023-06-30T10:35:47.330Z,48.04
2023-06-30T10:36:47.025Z,49.31
2023-06-30T10:37:47.063Z,49.61
2023-06-30T10:38:46.994Z,46.83
2023-06-30T10:39:47.088Z,47.92
2023-06-30T10:40:46.950Z,50.56
2023-06-30T10:41:46.951Z,47.97
2023-06-30T10:42:46.916Z,46.50
2023-06-30T10:43:47.008Z,46.41
2023-06-30T10:44:46.906Z,48.49
2023-06-30T10:45:47.023Z,48.19
2023-06-30T10:46:46.909Z,48.19
2023-06-30T10:47:46.963Z,48.69
2023-06-30T10:48:46.849Z,47.89
2023-06-30T10:49:46.844Z,49.80
2023-06-30T10:50:46.790Z,49.93
2023-06-30T10:51:46.886Z,49.53
2023-06-30T10:52:46.767Z,49.46
2023-06-30T10:53:46.774Z,51.57
2023-06-30T10:54:46.849Z,50.30
2023-06-30T10:55:47.255Z,51.37
2023-06-30T10:56:46.807Z,49.60
2023-06-30T10:57:46.696Z,52.17
2023-06-30T10:58:46.701Z,50.20
2023-06-30T10:59:46.661Z,49.78
2023-06-30T11:00:46.654Z,48.79
2023-06-30T11:01:46.728Z,49.48
2023-06-30T11:02:46.720Z,50.08
2023-06-30T11:03:46.756Z,48.19
2023-06-30T11:04:46.713Z,51.27
2023-06-30T11:05:46.862Z,51.37
2023-06-30T11:06:46.564Z,49.68
2023-06-30T11:07:46.577Z,49.38
2023-06-30T11:08:46.539Z,49.98
2023-06-30T11:09:46.576Z,49.36
2023-06-30T11:10:46.480Z,49.93
2023-06-30T11:11:46.489Z,49.58
2023-06-30T11:12:46.447Z,48.74
2023-06-30T11:13:46.516Z,46.44
2023-06-30T11:14:46.416Z,48.42
2023-06-30T11:15:47.340Z,46.61
2023-06-30T11:16:46.404Z,44.70
2023-06-30T11:17:46.514Z,47.82
2023-06-30T11:18:46.483Z,49.61
2023-06-30T11:19:46.513Z,47.02
2023-06-30T11:20:46.339Z,49.61
2023-06-30T11:21:46.356Z,48.32
2023-06-30T11:22:46.307Z,48.22
2023-06-30T11:23:46.383Z,49.33
2023-06-30T11:24:46.262Z,49.91
2023-06-30T11:25:46.285Z,48.32
2023-06-30T11:26:46.234Z,48.71
2023-06-30T11:27:46.313Z,48.64
2023-06-30T11:28:46.238Z,49.43
2023-06-30T11:29:46.245Z,49.21
2023-06-30T11:30:46.187Z,50.20
2023-06-30T11:31:46.219Z,49.91
2023-06-30T11:32:46.156Z,48.76
2023-06-30T11:33:46.252Z,47.99
2023-06-30T11:34:46.112Z,50.43
2023-06-30T11:35:46.267Z,49.25
2023-06-30T11:36:46.168Z,50.13
2023-06-30T11:37:46.064Z,50.68
2023-06-30T11:38:46.182Z,50.25
2023-06-30T11:39:46.037Z,48.11
2023-06-30T11:40:46.091Z,49.36
2023-06-30T11:41:46.003Z,47.65
2023-06-30T11:42:46.096Z,46.08
2023-06-30T11:43:45.992Z,48.04
2023-06-30T11:44:46.012Z,46.65
2023-06-30T11:45:46.206Z,48.38
2023-06-30T11:46:46.059Z,48.58
2023-06-30T11:47:45.964Z,49.01
2023-06-30T11:48:45.976Z,48.76
2023-06-30T11:49:45.915Z,51.03
2023-06-30T11:50:47.188Z,49.61
2023-06-30T11:51:45.855Z,46.72
2023-06-30T11:52:45.858Z,46.55
2023-06-30T11:53:45.842Z,48.56
2023-06-30T11:54:45.876Z,48.26
2023-06-30T11:55:46.177Z,49.66
2023-06-30T11:56:45.832Z,48.94
2023-06-30T11:57:45.783Z,48.44
2023-06-30T11:58:45.751Z,48.24
2023-06-30T11:59:45.736Z,48.11
2023-06-30T12:00:46.213Z,46.83
2023-06-30T12:01:45.698Z,47.82
2023-06-30T12:02:48.492Z,48.32
2023-06-30T12:03:46.080Z,48.81
2023-06-30T12:04:45.806Z,48.11
2023-06-30T12:05:46.027Z,46.23
2023-06-30T12:06:45.643Z,46.62
2023-06-30T12:07:45.676Z,45.93
2023-06-30T12:08:45.603Z,46.70
2023-06-30T12:09:45.688Z,47.00
2023-06-30T12:10:45.887Z,48.29
2023-06-30T12:11:45.593Z,48.77
2023-06-30T12:12:45.529Z,47.55
2023-06-30T12:13:45.607Z,43.78
2023-06-30T12:14:45.502Z,45.59
2023-06-30T12:15:45.742Z,45.51
2023-06-30T12:16:46.396Z,48.49
2023-06-30T12:17:45.547Z,45.51
2023-06-30T12:18:45.470Z,46.60
2023-06-30T12:19:45.451Z,47.28
2023-06-30T12:20:45.423Z,46.36
2023-06-30T12:21:45.416Z,46.71
2023-06-30T12:22:45.381Z,45.32
2023-06-30T12:23:45.478Z,45.18
2023-06-30T12:24:45.356Z,43.60
2023-06-30T12:25:45.722Z,43.89
2023-06-30T12:26:45.323Z,41.91
2023-06-30T12:27:45.412Z,42.38
2023-06-30T12:28:45.384Z,43.49
2023-06-30T12:29:45.319Z,45.25
2023-06-30T12:30:45.589Z,45.59
2023-06-30T12:31:45.352Z,45.59
2023-06-30T12:32:45.351Z,46.28
2023-06-30T12:33:45.253Z,44.00
2023-06-30T12:34:45.279Z,45.98
2023-06-30T12:35:45.421Z,46.76
2023-06-30T12:36:45.262Z,46.93
2023-06-30T12:37:45.178Z,48.47
2023-06-30T12:38:45.295Z,43.79
2023-06-30T12:39:45.184Z,43.55
2023-06-30T12:40:45.399Z,43.04
2023-06-30T12:41:45.120Z,41.46
2023-06-30T12:42:45.204Z,41.65
2023-06-30T12:43:45.442Z,41.85
2023-06-30T12:44:45.065Z,42.62
2023-06-30T12:45:45.125Z,43.41
2023-06-30T12:46:45.344Z,42.14
2023-06-30T12:47:45.189Z,43.60
2023-06-30T12:48:45.036Z,42.25
2023-06-30T12:49:44.996Z,42.49
2023-06-30T12:50:45.312Z,46.19
2023-06-30T12:51:44.969Z,46.56
2023-06-30T12:52:44.994Z,45.52
2023-06-30T12:53:44.951Z,44.43
2023-06-30T12:54:44.968Z,46.49
2023-06-30T12:55:44.923Z,43.91
2023-06-30T12:56:44.999Z,45.40
2023-06-30T12:57:44.884Z,42.11
2023-06-30T12:58:44.905Z,43.04
2023-06-30T12:59:44.860Z,41.83
2023-06-30T13:00:45.084Z,43.40
2023-06-30T13:01:44.985Z,42.71
2023-06-30T13:02:44.915Z,41.14
2023-06-30T13:03:44.914Z,41.91
2023-06-30T13:04:44.788Z,43.79
2023-06-30T13:05:44.871Z,41.89
2023-06-30T13:06:44.862Z,41.28
2023-06-30T13:07:44.764Z,43.75
2023-06-30T13:08:44.774Z,41.77
2023-06-30T13:09:44.714Z,43.35
2023-06-30T13:10:45.170Z,41.28
2023-06-30T13:11:44.689Z,41.85
2023-06-30T13:12:44.709Z,41.83
2023-06-30T13:13:44.669Z,39.87
2023-06-30T13:14:44.711Z,41.67
2023-06-30T13:15:45.065Z,43.18
2023-06-30T13:16:44.802Z,44.84
2023-06-30T13:17:44.743Z,41.79
2023-06-30T13:18:44.601Z,41.79
2023-06-30T13:19:44.662Z,43.70
2023-06-30T13:20:44.588Z,44.98
2023-06-30T13:21:44.662Z,44.09
2023-06-30T13:22:56.272Z,42.71
2023-06-30T13:23:44.536Z,43.70
2023-06-30T13:24:44.551Z,43.89
2023-06-30T13:25:45.098Z,43.42
2023-06-30T13:26:44.479Z,45.00
2023-06-30T13:27:44.505Z,41.53
2023-06-30T13:28:44.464Z,43.89
2023-06-30T13:29:44.453Z,43.48
2023-06-30T13:30:44.772Z,43.35
2023-06-30T13:31:44.442Z,43.46
2023-06-30T13:32:44.487Z,44.23
2023-06-30T13:33:44.422Z,42.54
2023-06-30T13:34:44.457Z,41.85
2023-06-30T13:35:44.558Z,41.65
2023-06-30T13:36:44.373Z,42.14
2023-06-30T13:37:44.380Z,42.35
2023-06-30T13:38:44.423Z,41.65
2023-06-30T13:39:44.405Z,41.25
2023-06-30T13:40:44.450Z,40.68
2023-06-30T13:41:44.278Z,41.31
2023-06-30T13:42:44.337Z,42.92
2023-06-30T13:43:44.278Z,43.14
2023-06-30T13:44:44.323Z,43.26
2023-06-30T13:45:44.556Z,43.96
2023-06-30T13:46:44.211Z,45.25
2023-06-30T13:47:44.256Z,44.83
2023-06-30T13:48:44.246Z,45.42
2023-06-30T13:49:44.163Z,46.00
2023-06-30T13:50:44.316Z,46.57
2023-06-30T13:51:44.155Z,44.19
2023-06-30T13:52:44.136Z,45.38
2023-06-30T13:53:44.195Z,42.11
2023-06-30T13:54:44.115Z,43.52
2023-06-30T13:55:44.632Z,43.32
2023-06-30T13:56:44.269Z,45.03
2023-06-30T13:57:44.111Z,44.04
2023-06-30T13:58:44.069Z,43.34
2023-06-30T13:59:44.159Z,41.75
2023-06-30T14:00:51.350Z,42.82
2023-06-30T14:02:48.232Z,43.49
2023-06-30T14:03:48.171Z,42.38
2023-06-30T14:05:41.141Z,42.27
2023-06-30T14:06:41.041Z,42.29
2023-06-30T14:08:45.131Z,40.72
2023-06-30T14:09:45.052Z,44.60
2023-06-30T14:11:49.149Z,43.68
2023-06-30T14:12:49.082Z,44.10
2023-06-30T14:14:53.156Z,46.70
2023-06-30T14:15:53.104Z,45.39
2023-06-30T14:17:57.213Z,45.59
2023-06-30T14:18:57.117Z,45.64
2023-06-30T14:21:01.149Z,43.85
2023-06-30T14:22:01.112Z,42.17
2023-06-30T14:24:05.196Z,43.84
2023-06-30T14:25:05.129Z,44.41
2023-06-30T14:27:09.211Z,43.28
2023-06-30T14:28:09.150Z,41.77
2023-06-30T14:30:13.241Z,40.60
2023-06-30T14:31:13.192Z,41.22
2023-06-30T14:33:17.254Z,41.73
2023-06-30T14:34:17.196Z,44.11
2023-06-30T14:36:21.260Z,43.54
2023-06-30T14:37:21.190Z,43.93
2023-06-30T14:39:25.284Z,44.93
2023-06-30T14:40:25.212Z,41.95
2023-06-30T14:42:32.536Z,42.72
2023-06-30T14:43:29.226Z,42.13
2023-06-30T14:45:22.248Z,42.31
2023-06-30T14:46:22.256Z,42.01
2023-06-30T14:48:26.263Z,43.30
2023-06-30T14:49:26.207Z,42.58
2023-06-30T14:51:30.255Z,43.46
2023-06-30T14:52:30.216Z,43.55
2023-06-30T14:54:34.309Z,41.28
2023-06-30T14:55:34.233Z,43.18
2023-06-30T14:57:38.305Z,43.28
2023-06-30T14:58:38.255Z,43.20
2023-06-30T15:00:42.338Z,43.91
2023-06-30T15:01:42.287Z,43.64
2023-06-30T15:03:46.407Z,41.97